Time;durP1;ratioP1;P1;durP2;ratioP2;P2;SDS_P1;SDS_P2;PMS_P1;PMS_P2;Temp;Humidity;BMP_temperature;BMP_pressure;BME280_temperature;BME280_humidity;BME280_pressure;Samples;Min_cycle;Max_cycle;Signal;HPM_P1;HPM_P2
2021/09/22 00:02:18;;;;;;;7.30;6.70;;;;;;;;;;5128683;27;24421;-59
2021/09/22 00:04:43;;;;;;;7.82;7.13;;;;;;;;;;5128685;27;25253;-62
2021/09/22 00:07:09;;;;;;;7.68;6.90;;;;;;;;;;5129156;27;24433;-59
2021/09/22 00:09:34;;;;;;;10.10;9.10;;;;;;;;;;5128673;27;24831;-59
2021/09/22 00:11:59;;;;;;;8.17;7.47;;;;;;;;;;5128833;27;24431;-59
2021/09/22 00:14:25;;;;;;;9.10;8.30;;;;;;;;;;5127542;27;24852;-59
2021/09/22 00:16:50;;;;;;;9.57;8.67;;;;;;;;;;5128734;27;24417;-60
2021/09/22 00:19:15;;;;;;;8.07;7.45;;;;;;;;;;5128045;27;24442;-60
2021/09/22 00:21:40;;;;;;;8.10;7.50;;;;;;;;;;5121879;27;24429;-60
2021/09/22 00:24:06;;;;;;;8.30;7.60;;;;;;;;;;5126797;27;24423;-60
2021/09/22 00:26:31;;;;;;;8.83;8.03;;;;;;;;;;5127494;27;24963;-60
2021/09/22 00:28:56;;;;;;;8.97;8.07;;;;;;;;;;5117817;27;24417;-59
2021/09/22 00:31:22;;;;;;;9.30;8.40;;;;;;;;;;5115347;27;24432;-60
2021/09/22 00:33:47;;;;;;;9.50;8.60;;;;;;;;;;5128487;27;24420;-60
2021/09/22 00:36:12;;;;;;;8.60;7.80;;;;;;;;;;5128562;27;24398;-60
2021/09/22 00:38:37;;;;;;;8.68;7.93;;;;;;;;;;5128484;27;25001;-61
2021/09/22 00:41:02;;;;;;;8.57;7.77;;;;;;;;;;5128747;27;25003;-60
2021/09/22 00:43:27;;;;;;;8.20;7.50;;;;;;;;;;5128250;27;25063;-60
2021/09/22 00:45:53;;;;;;;8.85;8.05;;;;;;;;;;5111640;27;24660;-60
2021/09/22 00:48:18;;;;;;;8.53;7.80;;;;;;;;;;5114648;27;24424;-60
2021/09/22 00:50:43;;;;;;;8.50;7.70;;;;;;;;;;5128332;27;24388;-60
2021/09/22 00:53:09;;;;;;;8.30;7.60;;;;;;;;;;5128508;27;24632;-59
2021/09/22 00:55:35;;;;;;;8.25;7.55;;;;;;;;;;5128678;27;24393;-59
2021/09/22 00:58:01;;;;;;;8.05;7.25;;;;;;;;;;5114004;27;24975;-59
2021/09/22 01:00:28;;;;;;;7.60;6.90;;;;;;;;;;5107310;28;24516;-59
2021/09/22 01:02:53;;;;;;;7.93;7.22;;;;;;;;;;5116517;27;24863;-59
2021/09/22 01:05:22;;;;;;;7.30;6.60;;;;;;;;;;5128049;27;24401;-60
2021/09/22 01:07:47;;;;;;;8.18;7.47;;;;;;;;;;5128480;27;24418;-59
2021/09/22 01:10:13;;;;;;;7.23;6.63;;;;;;;;;;5127985;27;24415;-59
2021/09/22 01:12:38;;;;;;;7.35;6.63;;;;;;;;;;5127766;27;24490;-60
2021/09/22 01:15:04;;;;;;;7.63;6.93;;;;;;;;;;5128241;27;24490;-60
2021/09/22 01:17:32;;;;;;;8.40;7.28;;;;;;;;;;5127845;27;24434;-60
2021/09/22 01:20:04;;;;;;;6.95;6.38;;;;;;;;;;5127920;27;25076;-60
2021/09/22 01:22:29;;;;;;;7.07;6.47;;;;;;;;;;5127551;27;24529;-60
2021/09/22 01:24:54;;;;;;;7.40;6.70;;;;;;;;;;5124153;27;24421;-59
2021/09/22 01:27:20;;;;;;;7.30;6.60;;;;;;;;;;5127666;27;24429;-60
2021/09/22 01:29:45;;;;;;;6.90;6.30;;;;;;;;;;5127250;27;24457;-59
2021/09/22 01:32:11;;;;;;;7.40;6.73;;;;;;;;;;5107091;28;24397;-59
2021/09/22 01:34:36;;;;;;;8.40;7.50;;;;;;;;;;5125135;27;24424;-61
2021/09/22 01:37:01;;;;;;;7.90;7.10;;;;;;;;;;5127219;27;24397;-60
2021/09/22 01:39:35;;;;;;;7.70;7.10;;;;;;;;;;5127049;27;24520;-60
2021/09/22 01:42:00;;;;;;;7.85;7.25;;;;;;;;;;5127053;27;24505;-60
2021/09/22 01:44:25;;;;;;;8.80;7.43;;;;;;;;;;5127026;27;24490;-60
2021/09/22 01:46:50;;;;;;;6.88;6.28;;;;;;;;;;5126896;28;24955;-60
2021/09/22 01:49:22;;;;;;;8.47;7.40;;;;;;;;;;5127082;28;24397;-60
2021/09/22 01:51:53;;;;;;;7.23;6.53;;;;;;;;;;5127062;28;24483;-60
2021/09/22 01:54:19;;;;;;;9.48;8.10;;;;;;;;;;5126781;28;24389;-61
2021/09/22 01:56:44;;;;;;;8.70;7.90;;;;;;;;;;5126904;28;24744;-60
2021/09/22 01:59:09;;;;;;;9.10;8.30;;;;;;;;;;5126978;28;24405;-61
2021/09/22 02:01:34;;;;;;;8.50;7.70;;;;;;;;;;5126829;28;24408;-61
2021/09/22 02:03:59;;;;;;;9.40;8.50;;;;;;;;;;5126883;28;25216;-60
2021/09/22 02:06:24;;;;;;;9.45;8.45;;;;;;;;;;5126909;28;24417;-62
2021/09/22 02:08:49;;;;;;;9.37;8.50;;;;;;;;;;5124185;27;24540;-60
2021/09/22 02:11:15;;;;;;;9.27;8.38;;;;;;;;;;5125281;28;24822;-60
2021/09/22 02:13:40;;;;;;;7.97;7.17;;;;;;;;;;5126462;28;24393;-60
2021/09/22 02:16:05;;;;;;;9.63;8.73;;;;;;;;;;5126276;28;24420;-60
2021/09/22 02:18:30;;;;;;;8.95;8.05;;;;;;;;;;5126376;28;24504;-60
2021/09/22 02:20:55;;;;;;;9.70;8.80;;;;;;;;;;5126954;28;24462;-60
2021/09/22 02:23:21;;;;;;;10.03;8.90;;;;;;;;;;5126744;28;24492;-60
2021/09/22 02:25:46;;;;;;;8.80;8.10;;;;;;;;;;5126805;28;24428;-60
2021/09/22 02:28:11;;;;;;;7.60;6.90;;;;;;;;;;5126772;28;24932;-60
2021/09/22 02:30:36;;;;;;;8.53;7.77;;;;;;;;;;5126746;28;25045;-60
2021/09/22 02:33:01;;;;;;;9.40;8.60;;;;;;;;;;5126496;28;24413;-60
2021/09/22 02:35:27;;;;;;;8.70;7.90;;;;;;;;;;5126705;28;24430;-60
2021/09/22 02:37:52;;;;;;;8.40;7.67;;;;;;;;;;5123780;28;24473;-60
2021/09/22 02:40:17;;;;;;;8.52;7.72;;;;;;;;;;5126648;28;24462;-59
2021/09/22 02:42:43;;;;;;;8.33;7.53;;;;;;;;;;5129444;27;24944;-59
2021/09/22 02:45:09;;;;;;;8.30;7.50;;;;;;;;;;5130745;27;24972;-60
2021/09/22 02:47:34;;;;;;;9.10;8.27;;;;;;;;;;5130224;27;25102;-59
2021/09/22 02:49:59;;;;;;;8.30;7.50;;;;;;;;;;5130786;27;24419;-59
2021/09/22 02:52:24;;;;;;;8.97;8.17;;;;;;;;;;5129761;27;24417;-60
2021/09/22 02:54:49;;;;;;;8.30;7.60;;;;;;;;;;5122560;27;24513;-60
2021/09/22 02:57:14;;;;;;;8.90;8.10;;;;;;;;;;5130099;27;24453;-60
2021/09/22 02:59:40;;;;;;;7.53;6.93;;;;;;;;;;5127010;27;24986;-59
2021/09/22 03:02:05;;;;;;;8.75;8.05;;;;;;;;;;5130027;27;24477;-60
2021/09/22 03:04:30;;;;;;;8.98;8.25;;;;;;;;;;5128833;27;24421;-60
2021/09/22 03:06:55;;;;;;;8.23;7.50;;;;;;;;;;5126702;27;25024;-60
2021/09/22 03:09:21;;;;;;;7.85;7.22;;;;;;;;;;5118666;27;24721;-60
2021/09/22 03:11:46;;;;;;;8.77;7.97;;;;;;;;;;5122860;27;25001;-60
2021/09/22 03:14:11;;;;;;;8.20;7.50;;;;;;;;;;5125867;27;24424;-60
2021/09/22 03:16:36;;;;;;;8.50;7.60;;;;;;;;;;5126214;27;24425;-60
2021/09/22 03:19:02;;;;;;;7.60;6.90;;;;;;;;;;5128713;27;24405;-60
2021/09/22 03:21:28;;;;;;;7.90;7.20;;;;;;;;;;5120877;27;24440;-60
2021/09/22 03:23:53;;;;;;;8.25;7.28;;;;;;;;;;5128968;27;24428;-60
2021/09/22 03:26:19;;;;;;;8.85;8.05;;;;;;;;;;5128752;27;24864;-60
2021/09/22 03:28:44;;;;;;;7.30;6.60;;;;;;;;;;5123829;27;24433;-60
2021/09/22 03:31:09;;;;;;;7.70;7.00;;;;;;;;;;5125684;27;24958;-60
2021/09/22 03:33:34;;;;;;;6.72;6.03;;;;;;;;;;5127635;27;24587;-60
2021/09/22 03:35:59;;;;;;;8.55;7.00;;;;;;;;;;5122538;27;24994;-60
2021/09/22 03:38:25;;;;;;;7.33;6.57;;;;;;;;;;5126718;27;24436;-60
2021/09/22 03:40:50;;;;;;;8.10;7.30;;;;;;;;;;5123729;27;24819;-60
2021/09/22 03:43:15;;;;;;;7.30;6.60;;;;;;;;;;5124820;27;24428;-59
2021/09/22 03:45:41;;;;;;;7.80;7.10;;;;;;;;;;5120306;27;24466;-59
2021/09/22 03:48:06;;;;;;;8.17;7.17;;;;;;;;;;5124542;27;24455;-60
2021/09/22 03:50:31;;;;;;;7.13;6.50;;;;;;;;;;5126967;27;24887;-60
2021/09/22 03:52:56;;;;;;;8.77;6.90;;;;;;;;;;5119097;27;24435;-60
2021/09/22 03:55:22;;;;;;;7.60;6.80;;;;;;;;;;5126518;27;24423;-60
2021/09/22 03:57:47;;;;;;;7.37;6.67;;;;;;;;;;5120040;27;24810;-60
2021/09/22 04:00:12;;;;;;;8.40;7.60;;;;;;;;;;5113081;27;25067;-60
2021/09/22 04:02:37;;;;;;;8.47;7.60;;;;;;;;;;5110516;27;24410;-60
2021/09/22 04:05:03;;;;;;;8.25;6.90;;;;;;;;;;5124409;27;25085;-60
2021/09/22 04:07:28;;;;;;;7.70;6.40;;;;;;;;;;5112654;27;24777;-60
2021/09/22 04:09:53;;;;;;;7.57;6.87;;;;;;;;;;5117745;27;24405;-60
2021/09/22 04:12:18;;;;;;;7.70;6.90;;;;;;;;;;5117897;27;24439;-60
2021/09/22 04:14:43;;;;;;;8.52;7.10;;;;;;;;;;5126607;27;24410;-61
2021/09/22 04:17:08;;;;;;;7.80;6.70;;;;;;;;;;5119621;27;24535;-60
2021/09/22 04:19:34;;;;;;;8.80;7.68;;;;;;;;;;5128278;27;24424;-61
2021/09/22 04:21:59;;;;;;;8.37;7.53;;;;;;;;;;5121548;27;24773;-60
2021/09/22 04:24:25;;;;;;;8.37;6.87;;;;;;;;;;5125725;27;24432;-60
2021/09/22 04:26:50;;;;;;;8.38;7.10;;;;;;;;;;5124834;27;24440;-61
2021/09/22 04:29:15;;;;;;;9.37;7.80;;;;;;;;;;5119882;27;24428;-60
2021/09/22 04:31:42;;;;;;;7.80;6.70;;;;;;;;;;5118289;27;25280;-60
2021/09/22 04:34:07;;;;;;;9.65;6.90;;;;;;;;;;5117126;27;24515;-61
2021/09/22 04:36:32;;;;;;;8.63;7.13;;;;;;;;;;5112007;27;24489;-61
2021/09/22 04:38:58;;;;;;;8.07;6.70;;;;;;;;;;5111421;27;24945;-61
2021/09/22 04:41:23;;;;;;;8.20;6.70;;;;;;;;;;5121814;27;24821;-61
2021/09/22 04:43:48;;;;;;;7.97;6.70;;;;;;;;;;5124377;27;24478;-60
2021/09/22 04:46:14;;;;;;;7.63;6.83;;;;;;;;;;5123994;27;24424;-60
2021/09/22 04:48:39;;;;;;;7.00;6.15;;;;;;;;;;5119911;27;24754;-61
2021/09/22 04:51:05;;;;;;;6.63;5.77;;;;;;;;;;5125303;27;24424;-61
2021/09/22 04:53:30;;;;;;;9.77;6.67;;;;;;;;;;5123052;27;24489;-61
2021/09/22 04:55:55;;;;;;;9.30;6.83;;;;;;;;;;5119567;27;24464;-60
2021/09/22 04:58:20;;;;;;;6.57;5.60;;;;;;;;;;5119429;27;24506;-61
2021/09/22 05:00:45;;;;;;;9.07;6.40;;;;;;;;;;5116205;27;24408;-61
2021/09/22 05:03:10;;;;;;;7.50;6.60;;;;;;;;;;5116238;27;24390;-61
2021/09/22 05:05:36;;;;;;;10.75;6.93;;;;;;;;;;5113618;27;24603;-60
2021/09/22 05:08:01;;;;;;;7.40;5.87;;;;;;;;;;5116210;27;24400;-61
2021/09/22 05:10:26;;;;;;;12.00;7.57;;;;;;;;;;5119650;27;25157;-60
2021/09/22 05:12:51;;;;;;;9.40;6.15;;;;;;;;;;5120967;27;24392;-61
2021/09/22 05:15:17;;;;;;;7.83;6.07;;;;;;;;;;5120504;27;24413;-61
2021/09/22 05:17:42;;;;;;;8.10;6.60;;;;;;;;;;5115930;27;24419;-61
2021/09/22 05:20:07;;;;;;;9.60;6.37;;;;;;;;;;5119875;27;24396;-61
2021/09/22 05:22:32;;;;;;;12.10;7.10;;;;;;;;;;5123597;27;24539;-61
2021/09/22 05:24:59;;;;;;;9.50;7.20;;;;;;;;;;5123275;27;24441;-61
2021/09/22 05:27:24;;;;;;;6.95;5.85;;;;;;;;;;5121215;27;24952;-61
2021/09/22 05:29:49;;;;;;;9.40;6.63;;;;;;;;;;5119432;27;24390;-61
2021/09/22 05:32:14;;;;;;;11.15;6.55;;;;;;;;;;5119483;27;24791;-61
2021/09/22 05:34:39;;;;;;;9.43;7.03;;;;;;;;;;5120796;27;24805;-61
2021/09/22 05:37:05;;;;;;;8.20;6.47;;;;;;;;;;5123342;27;24449;-61
2021/09/22 05:39:30;;;;;;;9.23;6.30;;;;;;;;;;5120744;27;24448;-61
2021/09/22 05:41:55;;;;;;;10.33;6.33;;;;;;;;;;5121079;27;24467;-61
2021/09/22 05:44:20;;;;;;;12.20;6.07;;;;;;;;;;5119395;27;24615;-61
2021/09/22 05:46:45;;;;;;;9.00;6.22;;;;;;;;;;5117800;27;24417;-61
2021/09/22 05:49:10;;;;;;;11.20;6.43;;;;;;;;;;5118983;28;24413;-62
2021/09/22 05:51:36;;;;;;;10.07;6.10;;;;;;;;;;5121109;28;24385;-61
2021/09/22 05:54:01;;;;;;;11.65;6.80;;;;;;;;;;5123315;28;24904;-61
2021/09/22 05:56:26;;;;;;;9.60;6.40;;;;;;;;;;5121076;28;24486;-61
2021/09/22 05:58:51;;;;;;;9.93;6.05;;;;;;;;;;5116761;28;24424;-61
2021/09/22 06:01:17;;;;;;;8.70;6.10;;;;;;;;;;5119094;28;25030;-61
2021/09/22 06:03:42;;;;;;;9.93;6.10;;;;;;;;;;5119286;28;24468;-61
2021/09/22 06:06:07;;;;;;;11.60;6.30;;;;;;;;;;5120114;28;24448;-61
2021/09/22 06:08:32;;;;;;;9.80;6.70;;;;;;;;;;5123172;28;24397;-62
2021/09/22 06:10:58;;;;;;;8.77;6.18;;;;;;;;;;5122895;28;24940;-61
2021/09/22 06:13:23;;;;;;;9.87;6.80;;;;;;;;;;5116217;28;24433;-62
2021/09/22 06:15:51;;;;;;;11.57;7.00;;;;;;;;;;5110349;27;24401;-61
2021/09/22 06:18:16;;;;;;;10.25;6.43;;;;;;;;;;5115148;27;24421;-61
2021/09/22 06:20:41;;;;;;;8.93;5.77;;;;;;;;;;5123354;27;24470;-61
2021/09/22 06:23:06;;;;;;;10.98;6.22;;;;;;;;;;5123684;27;24405;-61
2021/09/22 06:25:32;;;;;;;10.20;6.10;;;;;;;;;;5121800;27;24917;-61
2021/09/22 06:27:57;;;;;;;12.07;6.93;;;;;;;;;;5119456;27;24409;-61
2021/09/22 06:30:22;;;;;;;10.48;6.35;;;;;;;;;;5119464;27;24438;-61
2021/09/22 06:32:47;;;;;;;10.40;5.60;;;;;;;;;;5122890;27;24411;-61
2021/09/22 06:35:12;;;;;;;10.60;5.63;;;;;;;;;;5127527;27;24409;-61
2021/09/22 06:37:38;;;;;;;10.63;5.90;;;;;;;;;;5119235;27;24554;-61
2021/09/22 06:40:04;;;;;;;9.87;5.50;;;;;;;;;;5101819;27;24417;-61
2021/09/22 06:42:29;;;;;;;11.05;6.30;;;;;;;;;;5112342;27;24462;-60
2021/09/22 06:44:54;;;;;;;7.93;5.13;;;;;;;;;;5115084;27;24504;-61
2021/09/22 06:47:20;;;;;;;9.00;5.50;;;;;;;;;;5118856;27;24428;-61
2021/09/22 06:49:45;;;;;;;9.10;4.87;;;;;;;;;;5120329;27;24389;-61
2021/09/22 06:52:10;;;;;;;8.05;5.43;;;;;;;;;;5119891;27;24393;-61
2021/09/22 06:54:35;;;;;;;12.40;5.80;;;;;;;;;;5116988;27;24429;-61
2021/09/22 06:57:00;;;;;;;14.03;6.53;;;;;;;;;;5117819;27;24489;-61
2021/09/22 06:59:26;;;;;;;10.83;5.40;;;;;;;;;;5113268;27;24520;-61
2021/09/22 07:01:51;;;;;;;10.52;5.88;;;;;;;;;;5118817;27;24417;-61
2021/09/22 07:04:16;;;;;;;11.07;5.83;;;;;;;;;;5123436;27;24456;-61
2021/09/22 07:06:41;;;;;;;9.70;5.10;;;;;;;;;;5108569;27;24537;-62
2021/09/22 07:09:06;;;;;;;7.73;5.17;;;;;;;;;;5107924;27;24416;-61
2021/09/22 07:11:32;;;;;;;11.10;5.83;;;;;;;;;;5119035;27;24415;-61
2021/09/22 07:13:57;;;;;;;10.07;5.20;;;;;;;;;;5111377;27;24504;-61
2021/09/22 07:16:25;;;;;;;12.13;5.80;;;;;;;;;;5102839;27;24913;-62
2021/09/22 07:18:50;;;;;;;8.43;4.78;;;;;;;;;;5116871;27;24417;-62
2021/09/22 07:21:16;;;;;;;10.37;5.80;;;;;;;;;;5118129;27;24420;-61
2021/09/22 07:23:41;;;;;;;10.05;5.70;;;;;;;;;;5120717;27;24492;-61
2021/09/22 07:26:07;;;;;;;11.20;5.50;;;;;;;;;;5121945;27;24529;-60
2021/09/22 07:28:32;;;;;;;11.60;6.10;;;;;;;;;;5110552;27;24818;-60
2021/09/22 07:30:58;;;;;;;12.25;6.03;;;;;;;;;;5120797;27;24939;-61
2021/09/22 07:33:24;;;;;;;11.52;5.18;;;;;;;;;;5120748;27;24435;-60
2021/09/22 07:35:49;;;;;;;9.37;4.53;;;;;;;;;;5110528;27;24419;-62
2021/09/22 07:38:14;;;;;;;9.37;4.80;;;;;;;;;;5119010;27;24441;-61
2021/09/22 07:40:39;;;;;;;8.50;5.33;;;;;;;;;;5124374;27;25214;-60
2021/09/22 07:43:05;;;;;;;10.93;6.07;;;;;;;;;;5125245;27;24403;-62
2021/09/22 07:45:30;;;;;;;8.87;4.97;;;;;;;;;;5121565;27;24396;-62
2021/09/22 07:47:55;;;;;;;11.13;5.53;;;;;;;;;;5119523;27;24482;-60
2021/09/22 07:50:21;;;;;;;13.70;5.70;;;;;;;;;;5121321;27;24413;-60
2021/09/22 07:52:46;;;;;;;9.20;5.10;;;;;;;;;;5125229;27;24393;-60
2021/09/22 07:55:11;;;;;;;9.67;4.80;;;;;;;;;;5125178;27;24479;-61
2021/09/22 07:57:37;;;;;;;9.10;5.33;;;;;;;;;;5123092;27;24434;-60
2021/09/22 08:00:03;;;;;;;9.60;4.50;;;;;;;;;;5122758;27;24416;-61
2021/09/22 08:02:29;;;;;;;9.63;5.20;;;;;;;;;;5119622;27;24397;-61
2021/09/22 08:04:54;;;;;;;9.90;5.50;;;;;;;;;;5121181;27;24935;-60
2021/09/22 08:07:19;;;;;;;6.57;4.60;;;;;;;;;;5120946;27;24532;-60
2021/09/22 08:09:45;;;;;;;11.05;5.53;;;;;;;;;;5122642;27;24471;-60
2021/09/22 08:12:10;;;;;;;10.70;5.30;;;;;;;;;;5125019;27;24437;-60
2021/09/22 08:14:35;;;;;;;10.83;5.50;;;;;;;;;;5122910;27;25582;-60
2021/09/22 08:17:01;;;;;;;8.53;5.30;;;;;;;;;;5120954;27;25569;-60
2021/09/22 08:19:27;;;;;;;9.52;5.45;;;;;;;;;;5119163;27;24400;-60
2021/09/22 08:21:52;;;;;;;12.65;6.00;;;;;;;;;;5120645;27;24512;-60
2021/09/22 08:24:18;;;;;;;7.30;4.50;;;;;;;;;;5120908;27;24505;-61
2021/09/22 08:26:43;;;;;;;9.70;5.60;;;;;;;;;;5122621;27;24462;-60
2021/09/22 08:29:08;;;;;;;8.10;4.50;;;;;;;;;;5124193;27;25023;-61
2021/09/22 08:31:33;;;;;;;11.70;5.20;;;;;;;;;;5121901;27;24417;-61
2021/09/22 08:33:58;;;;;;;8.70;5.20;;;;;;;;;;5122619;27;25376;-61
2021/09/22 08:36:23;;;;;;;6.67;4.67;;;;;;;;;;5118376;27;24488;-61
2021/09/22 08:38:50;;;;;;;9.38;5.25;;;;;;;;;;5118875;27;24943;-60
2021/09/22 08:41:16;;;;;;;12.68;5.57;;;;;;;;;;5123461;27;24400;-61
2021/09/22 08:43:41;;;;;;;10.57;4.87;;;;;;;;;;5121868;27;24393;-61
2021/09/22 08:46:06;;;;;;;9.83;4.80;;;;;;;;;;5121864;27;24428;-61
2021/09/22 08:48:31;;;;;;;8.93;4.80;;;;;;;;;;5117926;27;24405;-61
2021/09/22 08:50:57;;;;;;;9.97;5.30;;;;;;;;;;5119883;27;24902;-61
2021/09/22 08:53:22;;;;;;;8.27;5.00;;;;;;;;;;5119516;27;24404;-60
2021/09/22 08:55:47;;;;;;;8.87;4.60;;;;;;;;;;5123562;27;24459;-61
2021/09/22 08:58:13;;;;;;;7.50;4.33;;;;;;;;;;5124153;27;24399;-61
2021/09/22 09:00:38;;;;;;;8.88;5.18;;;;;;;;;;5121806;27;24800;-61
2021/09/22 09:03:04;;;;;;;7.00;4.53;;;;;;;;;;5119454;27;24377;-62
2021/09/22 09:05:29;;;;;;;6.97;4.23;;;;;;;;;;5119498;27;24459;-59
2021/09/22 09:07:58;;;;;;;7.03;3.83;;;;;;;;;;5120357;27;25049;-61
2021/09/22 09:10:27;;;;;;;11.07;5.18;;;;;;;;;;5116898;27;24988;-61
2021/09/22 09:13:00;;;;;;;7.80;4.10;;;;;;;;;;5117728;27;24421;-60
2021/09/22 09:15:33;;;;;;;6.50;3.80;;;;;;;;;;5118254;27;24824;-61
2021/09/22 09:18:00;;;;;;;14.55;5.78;;;;;;;;;;5099422;28;24485;-60
2021/09/22 09:20:26;;;;;;;9.32;4.60;;;;;;;;;;5103118;28;24398;-63
2021/09/22 09:23:02;;;;;;;8.40;4.60;;;;;;;;;;5106972;27;24515;-61
2021/09/22 09:25:28;;;;;;;9.70;4.50;;;;;;;;;;5119468;27;25099;-61
2021/09/22 09:27:54;;;;;;;7.78;4.15;;;;;;;;;;5117366;27;24428;-62
2021/09/22 09:30:20;;;;;;;10.32;4.90;;;;;;;;;;5119813;27;24397;-62
2021/09/22 09:32:46;;;;;;;9.00;4.38;;;;;;;;;;5119134;27;24409;-59
2021/09/22 09:35:18;;;;;;;7.17;3.53;;;;;;;;;;5123264;27;24468;-63
2021/09/22 09:37:45;;;;;;;10.37;4.60;;;;;;;;;;5123135;27;24436;-62
2021/09/22 09:40:15;;;;;;;9.15;4.07;;;;;;;;;;5121181;27;24397;-62
2021/09/22 09:42:41;;;;;;;8.13;3.92;;;;;;;;;;5117453;27;24793;-60
2021/09/22 09:45:06;;;;;;;9.25;4.50;;;;;;;;;;5117650;27;24401;-60
2021/09/22 09:47:31;;;;;;;9.03;4.30;;;;;;;;;;5121999;27;24735;-60
2021/09/22 09:50:14;;;;;;;8.40;4.10;;;;;;;;;;5120822;27;24838;-60
2021/09/22 09:52:49;;;;;;;6.10;3.80;;;;;;;;;;5117076;28;24413;-61
2021/09/22 09:55:15;;;;;;;9.02;4.20;;;;;;;;;;5099197;28;24405;-61
2021/09/22 09:57:46;;;;;;;9.07;4.10;;;;;;;;;;5100543;28;24940;-60
2021/09/22 10:00:12;;;;;;;6.45;3.70;;;;;;;;;;5102231;28;24519;-63
2021/09/22 10:02:37;;;;;;;7.90;3.97;;;;;;;;;;5104687;28;24941;-61
2021/09/22 10:05:02;;;;;;;7.90;3.90;;;;;;;;;;5119394;28;25544;-62
2021/09/22 10:07:29;;;;;;;8.20;4.20;;;;;;;;;;5119232;28;24852;-62
2021/09/22 10:09:55;;;;;;;5.65;3.30;;;;;;;;;;5117559;28;24389;-61
2021/09/22 10:12:21;;;;;;;6.78;4.03;;;;;;;;;;5121222;28;24395;-62
2021/09/22 10:14:47;;;;;;;7.88;3.90;;;;;;;;;;5122270;28;24402;-61
2021/09/22 10:17:14;;;;;;;9.73;4.40;;;;;;;;;;5122710;28;24441;-61
2021/09/22 10:19:39;;;;;;;10.05;3.72;;;;;;;;;;5119066;28;24389;-60
2021/09/22 10:22:05;;;;;;;9.10;3.90;;;;;;;;;;5117344;28;24392;-61
2021/09/22 10:24:30;;;;;;;9.07;4.17;;;;;;;;;;5120557;28;24412;-61
2021/09/22 10:26:55;;;;;;;8.20;3.87;;;;;;;;;;5122391;28;24417;-61
2021/09/22 10:29:37;;;;;;;6.97;3.83;;;;;;;;;;5120732;28;24932;-60
2021/09/22 10:32:04;;;;;;;7.38;3.40;;;;;;;;;;5119121;28;25530;-60
2021/09/22 10:34:34;;;;;;;8.80;4.15;;;;;;;;;;5116554;28;24437;-60
2021/09/22 10:37:00;;;;;;;6.25;3.55;;;;;;;;;;5118995;28;24524;-60
2021/09/22 10:39:35;;;;;;;7.03;3.80;;;;;;;;;;5120810;28;24404;-62
2021/09/22 10:42:00;;;;;;;6.72;3.40;;;;;;;;;;5122572;28;24404;-60
2021/09/22 10:44:36;;;;;;;5.80;3.23;;;;;;;;;;5120936;28;24417;-62
2021/09/22 10:47:19;;;;;;;6.40;3.55;;;;;;;;;;5118034;28;24425;-60
2021/09/22 10:49:44;;;;;;;6.50;3.40;;;;;;;;;;5115878;28;24959;-60
2021/09/22 10:52:27;;;;;;;7.80;3.70;;;;;;;;;;5119019;28;24398;-60
2021/09/22 10:55:06;;;;;;;7.50;3.70;;;;;;;;;;5122592;28;24572;-60
2021/09/22 10:57:31;;;;;;;8.07;4.18;;;;;;;;;;5120332;28;24956;-60
2021/09/22 11:00:16;;;;;;;7.90;3.60;;;;;;;;;;5120692;28;24520;-60
2021/09/22 11:02:45;;;;;;;7.07;3.33;;;;;;;;;;5116043;27;24591;-62
2021/09/22 11:05:12;;;;;;;6.90;3.72;;;;;;;;;;5118448;27;24956;-60
2021/09/22 11:07:52;;;;;;;7.10;3.35;;;;;;;;;;5120869;27;24494;-60
2021/09/22 11:10:31;;;;;;;7.97;3.45;;;;;;;;;;5124902;27;24413;-62
2021/09/22 11:13:16;;;;;;;9.07;3.95;;;;;;;;;;5118977;27;24436;-60
2021/09/22 11:15:42;;;;;;;6.72;3.78;;;;;;;;;;5116708;27;24475;-61
2021/09/22 11:18:07;;;;;;;8.32;3.60;;;;;;;;;;5122157;27;24481;-60
2021/09/22 11:20:33;;;;;;;7.47;3.40;;;;;;;;;;5123621;27;24558;-61
2021/09/22 11:23:05;;;;;;;8.70;3.50;;;;;;;;;;5125156;27;24419;-60
2021/09/22 11:25:31;;;;;;;7.90;3.88;;;;;;;;;;5121611;27;24512;-62
2021/09/22 11:28:02;;;;;;;5.75;3.38;;;;;;;;;;5119576;27;24513;-62
2021/09/22 11:30:27;;;;;;;7.35;3.60;;;;;;;;;;5121975;27;24402;-62
2021/09/22 11:32:52;;;;;;;5.67;3.33;;;;;;;;;;5122955;27;24704;-62
2021/09/22 11:35:18;;;;;;;6.60;3.58;;;;;;;;;;5124725;27;24865;-61
2021/09/22 11:37:44;;;;;;;8.68;3.53;;;;;;;;;;5124969;27;25209;-61
2021/09/22 11:40:12;;;;;;;8.10;3.38;;;;;;;;;;5123482;27;24928;-60
2021/09/22 11:42:38;;;;;;;7.63;3.63;;;;;;;;;;5119693;27;24428;-60
2021/09/22 11:45:03;;;;;;;7.18;3.50;;;;;;;;;;5119722;27;24493;-60
2021/09/22 11:47:29;;;;;;;6.70;3.30;;;;;;;;;;5121250;27;24516;-60
2021/09/22 11:49:54;;;;;;;7.77;3.43;;;;;;;;;;5123408;27;24445;-61
2021/09/22 11:52:20;;;;;;;8.27;4.00;;;;;;;;;;5125484;27;24441;-61
2021/09/22 11:54:47;;;;;;;9.82;3.75;;;;;;;;;;5127626;27;25206;-60
2021/09/22 11:57:14;;;;;;;9.13;3.50;;;;;;;;;;5127984;27;24429;-61
2021/09/22 11:59:41;;;;;;;6.65;3.40;;;;;;;;;;5124469;27;24398;-61
2021/09/22 12:02:07;;;;;;;8.25;3.30;;;;;;;;;;5124137;27;24417;-61
2021/09/22 12:04:36;;;;;;;6.20;2.60;;;;;;;;;;5121734;27;24822;-61
2021/09/22 12:07:04;;;;;;;6.32;3.20;;;;;;;;;;5118070;27;24432;-61
2021/09/22 12:09:40;;;;;;;6.70;2.88;;;;;;;;;;5119921;27;25103;-61
2021/09/22 12:12:06;;;;;;;4.90;2.90;;;;;;;;;;5122076;27;24451;-61
2021/09/22 12:14:31;;;;;;;6.35;2.97;;;;;;;;;;5117745;27;24514;-61
2021/09/22 12:17:06;;;;;;;7.43;3.70;;;;;;;;;;5118500;27;24896;-61
2021/09/22 12:19:32;;;;;;;7.50;3.15;;;;;;;;;;5118422;27;24428;-61
2021/09/22 12:21:57;;;;;;;4.70;2.37;;;;;;;;;;5118458;27;25002;-61
2021/09/22 12:24:22;;;;;;;5.38;2.50;;;;;;;;;;5125307;27;24406;-61
2021/09/22 12:26:51;;;;;;;4.07;2.47;;;;;;;;;;5125004;27;24575;-61
2021/09/22 12:29:17;;;;;;;8.15;2.90;;;;;;;;;;5124956;27;24409;-61
2021/09/22 12:31:43;;;;;;;8.65;3.63;;;;;;;;;;5123362;27;25009;-61
2021/09/22 12:34:18;;;;;;;7.43;3.42;;;;;;;;;;5123644;27;24532;-61
2021/09/22 12:36:44;;;;;;;7.90;3.00;;;;;;;;;;5124602;27;24882;-61
2021/09/22 12:39:13;;;;;;;7.15;3.40;;;;;;;;;;5121506;27;25064;-61
2021/09/22 12:41:55;;;;;;;6.25;2.78;;;;;;;;;;5123527;27;25083;-61
2021/09/22 12:44:20;;;;;;;8.35;3.17;;;;;;;;;;5123426;27;24509;-61
2021/09/22 12:46:47;;;;;;;6.65;3.40;;;;;;;;;;5123956;27;21359;-60
2021/09/22 12:49:13;;;;;;;8.63;3.40;;;;;;;;;;5120278;27;24960;-60
2021/09/22 12:51:44;;;;;;;6.70;3.10;;;;;;;;;;5121597;27;24888;-60
2021/09/22 12:54:10;;;;;;;6.53;3.22;;;;;;;;;;5120025;27;24749;-60
2021/09/22 12:56:35;;;;;;;7.50;3.20;;;;;;;;;;5118500;27;24587;-60
2021/09/22 12:59:20;;;;;;;7.50;3.70;;;;;;;;;;5116045;27;24457;-60
2021/09/22 13:01:49;;;;;;;9.90;3.90;;;;;;;;;;5104101;27;24429;-60
2021/09/22 13:04:24;;;;;;;7.65;3.45;;;;;;;;;;5124554;27;24864;-60
2021/09/22 13:06:50;;;;;;;7.68;3.15;;;;;;;;;;5103702;28;24413;-60
2021/09/22 13:09:15;;;;;;;7.85;2.90;;;;;;;;;;5112370;27;24991;-60
2021/09/22 13:11:42;;;;;;;7.47;3.47;;;;;;;;;;5119247;27;24417;-60
2021/09/22 13:14:13;;;;;;;5.63;2.80;;;;;;;;;;5105373;27;24420;-60
2021/09/22 13:16:41;;;;;;;5.07;2.65;;;;;;;;;;5126332;27;24612;-60
2021/09/22 13:19:07;;;;;;;8.52;3.03;;;;;;;;;;5125823;27;24483;-60
2021/09/22 13:21:33;;;;;;;5.85;3.13;;;;;;;;;;5122231;27;24803;-60
2021/09/22 13:24:00;;;;;;;5.85;3.10;;;;;;;;;;5126067;27;24425;-60
2021/09/22 13:26:25;;;;;;;7.78;2.95;;;;;;;;;;5124787;27;24497;-60
2021/09/22 13:28:51;;;;;;;6.07;3.10;;;;;;;;;;5111365;27;24944;-60
2021/09/22 13:31:17;;;;;;;6.80;3.50;;;;;;;;;;5118747;27;25265;-60
2021/09/22 13:33:42;;;;;;;7.22;3.30;;;;;;;;;;5125299;27;24431;-60
2021/09/22 13:36:08;;;;;;;5.32;2.80;;;;;;;;;;5122821;27;24785;-61
2021/09/22 13:38:33;;;;;;;7.83;3.00;;;;;;;;;;5125341;27;24422;-59
2021/09/22 13:40:58;;;;;;;7.17;3.30;;;;;;;;;;5125603;27;24558;-59
2021/09/22 13:43:25;;;;;;;6.27;2.90;;;;;;;;;;5122473;27;24466;-59
2021/09/22 13:45:51;;;;;;;5.18;2.80;;;;;;;;;;5112375;27;24493;-61
2021/09/22 13:48:16;;;;;;;6.90;2.88;;;;;;;;;;5115876;27;24417;-61
2021/09/22 13:50:42;;;;;;;9.03;3.57;;;;;;;;;;5114772;28;24978;-61
2021/09/22 13:53:07;;;;;;;7.37;3.50;;;;;;;;;;5117419;28;24420;-61
2021/09/22 13:55:32;;;;;;;5.75;3.28;;;;;;;;;;5124514;28;24754;-60
2021/09/22 13:57:57;;;;;;;5.85;2.90;;;;;;;;;;5126350;28;24428;-60
2021/09/22 14:00:22;;;;;;;6.75;3.00;;;;;;;;;;5112452;28;24459;-61
2021/09/22 14:02:47;;;;;;;6.70;2.83;;;;;;;;;;5123164;28;24413;-60
2021/09/22 14:05:12;;;;;;;6.38;3.10;;;;;;;;;;5121217;28;24413;-60
2021/09/22 14:07:38;;;;;;;5.05;2.70;;;;;;;;;;5123245;28;24429;-59
2021/09/22 14:10:03;;;;;;;5.77;2.77;;;;;;;;;;5122304;28;24518;-60
2021/09/22 14:12:28;;;;;;;8.50;3.50;;;;;;;;;;5122702;28;24440;-59
2021/09/22 14:14:54;;;;;;;7.87;3.40;;;;;;;;;;5114879;28;24421;-60
2021/09/22 14:17:20;;;;;;;7.27;3.50;;;;;;;;;;5113351;28;24398;-60
2021/09/22 14:19:45;;;;;;;8.13;3.20;;;;;;;;;;5120803;28;26132;-60
2021/09/22 14:22:10;;;;;;;5.97;3.03;;;;;;;;;;5115141;28;24431;-61
2021/09/22 14:24:35;;;;;;;7.22;3.38;;;;;;;;;;5125500;28;24417;-61
2021/09/22 14:27:02;;;;;;;5.47;2.87;;;;;;;;;;5126235;28;24936;-60
2021/09/22 14:29:27;;;;;;;8.18;3.20;;;;;;;;;;5126597;28;24539;-60
2021/09/22 14:31:52;;;;;;;5.55;2.80;;;;;;;;;;5125849;28;24550;-60
2021/09/22 14:34:17;;;;;;;7.97;3.33;;;;;;;;;;5120540;28;25006;-60
2021/09/22 14:36:46;;;;;;;7.63;3.40;;;;;;;;;;5123541;27;24439;-61